sensor_id;sensor_type;location;lat;lon;timestamp;P1;durP1;ratioP1;P2;durP2;ratioP2
5987;SDS011;3021;51.000;6.980;2023-07-29T00:01:47;1.73;;;1.63;;
5987;SDS011;3021;51.000;6.980;2023-07-29T00:04:14;5.38;;;1.80;;
5987;SDS011;3021;51.000;6.980;2023-07-29T00:06:39;1.60;;;1.50;;
5987;SDS011;3021;51.000;6.980;2023-07-29T00:09:05;4.05;;;2.20;;
5987;SDS011;3021;51.000;6.980;2023-07-29T00:11:30;2.38;;;1.73;;
5987;SDS011;3021;51.000;6.980;2023-07-29T00:13:57;2.78;;;1.73;;
5987;SDS011;3021;51.000;6.980;2023-07-29T00:16:22;3.60;;;2.00;;
5987;SDS011;3021;51.000;6.980;2023-07-29T00:18:48;3.10;;;2.10;;
5987;SDS011;3021;51.000;6.980;2023-07-29T00:21:14;2.30;;;2.10;;
5987;SDS011;3021;51.000;6.980;2023-07-29T00:23:39;2.92;;;2.30;;
5987;SDS011;3021;51.000;6.980;2023-07-29T00:26:05;4.68;;;2.17;;
5987;SDS011;3021;51.000;6.980;2023-07-29T00:28:30;4.70;;;1.90;;
5987;SDS011;3021;51.000;6.980;2023-07-29T00:30:56;2.30;;;2.03;;
5987;SDS011;3021;51.000;6.980;2023-07-29T00:33:21;4.28;;;2.42;;
5987;SDS011;3021;51.000;6.980;2023-07-29T00:35:46;4.57;;;2.30;;
5987;SDS011;3021;51.000;6.980;2023-07-29T00:38:12;2.53;;;2.33;;
5987;SDS011;3021;51.000;6.980;2023-07-29T00:40:37;4.00;;;2.33;;
5987;SDS011;3021;51.000;6.980;2023-07-29T00:43:03;3.58;;;2.20;;
5987;SDS011;3021;51.000;6.980;2023-07-29T00:45:29;6.18;;;2.25;;
5987;SDS011;3021;51.000;6.980;2023-07-29T00:47:55;4.10;;;2.35;;
5987;SDS011;3021;51.000;6.980;2023-07-29T00:50:20;4.65;;;2.35;;
5987;SDS011;3021;51.000;6.980;2023-07-29T00:52:46;3.03;;;2.10;;
5987;SDS011;3021;51.000;6.980;2023-07-29T00:55:12;2.88;;;2.20;;
5987;SDS011;3021;51.000;6.980;2023-07-29T00:57:37;5.28;;;2.53;;
5987;SDS011;3021;51.000;6.980;2023-07-29T01:00:03;4.97;;;2.45;;
5987;SDS011;3021;51.000;6.980;2023-07-29T01:02:29;3.75;;;2.47;;
5987;SDS011;3021;51.000;6.980;2023-07-29T01:04:57;3.08;;;2.00;;
5987;SDS011;3021;51.000;6.980;2023-07-29T01:07:26;2.60;;;2.40;;
5987;SDS011;3021;51.000;6.980;2023-07-29T01:10:10;3.67;;;2.15;;
5987;SDS011;3021;51.000;6.980;2023-07-29T01:15:24;4.50;;;2.55;;
5987;SDS011;3021;51.000;6.980;2023-07-29T01:17:59;2.75;;;2.47;;
5987;SDS011;3021;51.000;6.980;2023-07-29T01:20:29;5.18;;;2.80;;
5987;SDS011;3021;51.000;6.980;2023-07-29T01:22:58;2.83;;;2.42;;
5987;SDS011;3021;51.000;6.980;2023-07-29T01:25:23;5.78;;;2.70;;
5987;SDS011;3021;51.000;6.980;2023-07-29T01:27:49;2.92;;;2.60;;
5987;SDS011;3021;51.000;6.980;2023-07-29T01:30:16;4.22;;;2.83;;
5987;SDS011;3021;51.000;6.980;2023-07-29T01:32:43;3.78;;;2.75;;
5987;SDS011;3021;51.000;6.980;2023-07-29T01:35:19;4.50;;;2.63;;
5987;SDS011;3021;51.000;6.980;2023-07-29T01:37:51;7.55;;;2.83;;
5987;SDS011;3021;51.000;6.980;2023-07-29T01:40:20;3.47;;;2.55;;
5987;SDS011;3021;51.000;6.980;2023-07-29T01:42:48;2.92;;;2.65;;
5987;SDS011;3021;51.000;6.980;2023-07-29T01:45:14;3.17;;;2.88;;
5987;SDS011;3021;51.000;6.980;2023-07-29T01:47:39;2.80;;;2.53;;
5987;SDS011;3021;51.000;6.980;2023-07-29T01:50:06;4.95;;;2.75;;
5987;SDS011;3021;51.000;6.980;2023-07-29T01:52:32;6.80;;;3.10;;
5987;SDS011;3021;51.000;6.980;2023-07-29T01:54:58;5.05;;;3.05;;
5987;SDS011;3021;51.000;6.980;2023-07-29T01:57:23;3.53;;;3.17;;
5987;SDS011;3021;51.000;6.980;2023-07-29T01:59:48;4.88;;;3.00;;
5987;SDS011;3021;51.000;6.980;2023-07-29T02:02:13;6.53;;;3.20;;
5987;SDS011;3021;51.000;6.980;2023-07-29T02:04:39;4.57;;;3.45;;
5987;SDS011;3021;51.000;6.980;2023-07-29T02:07:04;4.18;;;3.20;;
5987;SDS011;3021;51.000;6.980;2023-07-29T02:09:30;4.90;;;3.88;;
5987;SDS011;3021;51.000;6.980;2023-07-29T02:11:56;5.65;;;3.53;;
5987;SDS011;3021;51.000;6.980;2023-07-29T02:14:22;5.47;;;3.83;;
5987;SDS011;3021;51.000;6.980;2023-07-29T02:16:47;5.50;;;3.63;;
5987;SDS011;3021;51.000;6.980;2023-07-29T02:19:13;4.30;;;3.60;;
5987;SDS011;3021;51.000;6.980;2023-07-29T02:21:38;6.93;;;3.72;;
5987;SDS011;3021;51.000;6.980;2023-07-29T02:24:03;4.80;;;4.03;;
5987;SDS011;3021;51.000;6.980;2023-07-29T02:26:29;4.55;;;3.42;;
5987;SDS011;3021;51.000;6.980;2023-07-29T02:28:54;7.38;;;3.63;;
5987;SDS011;3021;51.000;6.980;2023-07-29T02:31:23;5.45;;;3.80;;
5987;SDS011;3021;51.000;6.980;2023-07-29T02:33:50;5.78;;;4.05;;
5987;SDS011;3021;51.000;6.980;2023-07-29T02:36:16;6.05;;;4.38;;
5987;SDS011;3021;51.000;6.980;2023-07-29T02:38:42;5.75;;;4.10;;
5987;SDS011;3021;51.000;6.980;2023-07-29T02:41:08;6.93;;;3.78;;
5987;SDS011;3021;51.000;6.980;2023-07-29T02:43:35;5.55;;;4.20;;
5987;SDS011;3021;51.000;6.980;2023-07-29T02:46:01;4.18;;;3.30;;
5987;SDS011;3021;51.000;6.980;2023-07-29T02:48:28;4.55;;;3.80;;
5987;SDS011;3021;51.000;6.980;2023-07-29T02:50:53;4.68;;;3.65;;
5987;SDS011;3021;51.000;6.980;2023-07-29T02:53:19;6.38;;;4.20;;
5987;SDS011;3021;51.000;6.980;2023-07-29T02:55:44;6.57;;;4.18;;
5987;SDS011;3021;51.000;6.980;2023-07-29T02:58:10;9.23;;;4.68;;
5987;SDS011;3021;51.000;6.980;2023-07-29T03:00:35;5.63;;;4.15;;
5987;SDS011;3021;51.000;6.980;2023-07-29T03:03:01;5.20;;;3.78;;
5987;SDS011;3021;51.000;6.980;2023-07-29T03:05:29;6.97;;;4.15;;
5987;SDS011;3021;51.000;6.980;2023-07-29T03:07:54;4.43;;;3.70;;
5987;SDS011;3021;51.000;6.980;2023-07-29T03:10:20;5.68;;;3.75;;
5987;SDS011;3021;51.000;6.980;2023-07-29T03:12:45;4.78;;;3.40;;
5987;SDS011;3021;51.000;6.980;2023-07-29T03:15:11;6.35;;;3.95;;
5987;SDS011;3021;51.000;6.980;2023-07-29T03:17:37;5.57;;;3.03;;
5987;SDS011;3021;51.000;6.980;2023-07-29T03:20:02;4.75;;;2.65;;
5987;SDS011;3021;51.000;6.980;2023-07-29T03:22:28;4.25;;;2.63;;
5987;SDS011;3021;51.000;6.980;2023-07-29T03:24:53;3.35;;;2.67;;
5987;SDS011;3021;51.000;6.980;2023-07-29T03:27:18;2.80;;;2.50;;
5987;SDS011;3021;51.000;6.980;2023-07-29T03:29:44;3.65;;;2.40;;
5987;SDS011;3021;51.000;6.980;2023-07-29T03:32:09;2.42;;;2.22;;
5987;SDS011;3021;51.000;6.980;2023-07-29T03:34:34;3.80;;;2.47;;
5987;SDS011;3021;51.000;6.980;2023-07-29T03:37:00;2.83;;;2.42;;
5987;SDS011;3021;51.000;6.980;2023-07-29T03:39:26;4.43;;;2.80;;
5987;SDS011;3021;51.000;6.980;2023-07-29T03:41:51;4.00;;;2.65;;
5987;SDS011;3021;51.000;6.980;2023-07-29T03:44:17;3.50;;;2.75;;
5987;SDS011;3021;51.000;6.980;2023-07-29T03:46:43;4.50;;;2.70;;
5987;SDS011;3021;51.000;6.980;2023-07-29T03:49:09;3.90;;;2.70;;
5987;SDS011;3021;51.000;6.980;2023-07-29T03:51:34;3.50;;;3.20;;
5987;SDS011;3021;51.000;6.980;2023-07-29T03:53:59;7.45;;;4.20;;
5987;SDS011;3021;51.000;6.980;2023-07-29T03:56:25;6.15;;;3.45;;
5987;SDS011;3021;51.000;6.980;2023-07-29T03:58:50;3.78;;;3.08;;
5987;SDS011;3021;51.000;6.980;2023-07-29T04:01:17;5.05;;;3.13;;
5987;SDS011;3021;51.000;6.980;2023-07-29T04:03:44;3.72;;;2.90;;
5987;SDS011;3021;51.000;6.980;2023-07-29T04:06:10;5.53;;;2.60;;
5987;SDS011;3021;51.000;6.980;2023-07-29T04:08:36;4.00;;;3.00;;
5987;SDS011;3021;51.000;6.980;2023-07-29T04:11:01;4.95;;;3.03;;
5987;SDS011;3021;51.000;6.980;2023-07-29T04:13:26;4.65;;;2.90;;
5987;SDS011;3021;51.000;6.980;2023-07-29T04:15:52;4.88;;;2.95;;
5987;SDS011;3021;51.000;6.980;2023-07-29T04:18:17;3.85;;;2.75;;
5987;SDS011;3021;51.000;6.980;2023-07-29T04:20:42;3.50;;;3.03;;
5987;SDS011;3021;51.000;6.980;2023-07-29T04:23:08;4.80;;;2.80;;
5987;SDS011;3021;51.000;6.980;2023-07-29T04:25:33;5.47;;;2.70;;
5987;SDS011;3021;51.000;6.980;2023-07-29T04:27:59;7.43;;;2.83;;
5987;SDS011;3021;51.000;6.980;2023-07-29T04:30:24;3.30;;;2.90;;
5987;SDS011;3021;51.000;6.980;2023-07-29T04:32:49;4.13;;;2.50;;
5987;SDS011;3021;51.000;6.980;2023-07-29T04:35:15;4.25;;;2.92;;
5987;SDS011;3021;51.000;6.980;2023-07-29T04:37:40;4.20;;;2.70;;
5987;SDS011;3021;51.000;6.980;2023-07-29T04:40:06;13.80;;;3.47;;
5987;SDS011;3021;51.000;6.980;2023-07-29T04:42:32;5.68;;;2.88;;
5987;SDS011;3021;51.000;6.980;2023-07-29T04:44:57;3.50;;;2.97;;
5987;SDS011;3021;51.000;6.980;2023-07-29T04:47:22;8.27;;;2.97;;
5987;SDS011;3021;51.000;6.980;2023-07-29T04:49:48;4.32;;;3.10;;
5987;SDS011;3021;51.000;6.980;2023-07-29T04:52:13;4.82;;;3.17;;
5987;SDS011;3021;51.000;6.980;2023-07-29T04:54:40;10.55;;;3.13;;
5987;SDS011;3021;51.000;6.980;2023-07-29T04:57:05;7.18;;;3.35;;
5987;SDS011;3021;51.000;6.980;2023-07-29T04:59:31;6.10;;;3.17;;
5987;SDS011;3021;51.000;6.980;2023-07-29T05:01:56;5.30;;;3.25;;
5987;SDS011;3021;51.000;6.980;2023-07-29T05:04:21;5.28;;;3.45;;
5987;SDS011;3021;51.000;6.980;2023-07-29T05:06:47;4.43;;;3.33;;
5987;SDS011;3021;51.000;6.980;2023-07-29T05:09:16;6.97;;;3.05;;
5987;SDS011;3021;51.000;6.980;2023-07-29T05:11:43;6.65;;;3.63;;
5987;SDS011;3021;51.000;6.980;2023-07-29T05:14:16;6.57;;;4.22;;
5987;SDS011;3021;51.000;6.980;2023-07-29T05:16:42;7.25;;;3.78;;
5987;SDS011;3021;51.000;6.980;2023-07-29T05:19:08;4.63;;;3.95;;
5987;SDS011;3021;51.000;6.980;2023-07-29T05:21:33;5.22;;;4.00;;
5987;SDS011;3021;51.000;6.980;2023-07-29T05:23:59;4.18;;;3.67;;
5987;SDS011;3021;51.000;6.980;2023-07-29T05:26:24;5.15;;;3.42;;
5987;SDS011;3021;51.000;6.980;2023-07-29T05:28:50;8.93;;;4.10;;
5987;SDS011;3021;51.000;6.980;2023-07-29T05:31:15;5.55;;;3.75;;
5987;SDS011;3021;51.000;6.980;2023-07-29T05:33:40;4.28;;;3.03;;
5987;SDS011;3021;51.000;6.980;2023-07-29T05:36:06;4.22;;;3.40;;
5987;SDS011;3021;51.000;6.980;2023-07-29T05:38:31;6.55;;;3.58;;
5987;SDS011;3021;51.000;6.980;2023-07-29T05:40:56;5.65;;;3.67;;
5987;SDS011;3021;51.000;6.980;2023-07-29T05:43:23;5.60;;;3.67;;
5987;SDS011;3021;51.000;6.980;2023-07-29T05:45:49;7.32;;;3.42;;
5987;SDS011;3021;51.000;6.980;2023-07-29T05:48:15;3.55;;;2.95;;
5987;SDS011;3021;51.000;6.980;2023-07-29T05:50:41;5.70;;;3.67;;
5987;SDS011;3021;51.000;6.980;2023-07-29T05:53:06;6.35;;;4.45;;
5987;SDS011;3021;51.000;6.980;2023-07-29T05:55:32;5.00;;;3.60;;
5987;SDS011;3021;51.000;6.980;2023-07-29T05:57:57;4.05;;;3.53;;
5987;SDS011;3021;51.000;6.980;2023-07-29T06:00:22;5.07;;;3.65;;
5987;SDS011;3021;51.000;6.980;2023-07-29T06:02:48;6.40;;;3.80;;
5987;SDS011;3021;51.000;6.980;2023-07-29T06:05:13;4.68;;;3.38;;
5987;SDS011;3021;51.000;6.980;2023-07-29T06:07:38;5.70;;;3.95;;
5987;SDS011;3021;51.000;6.980;2023-07-29T06:10:08;6.38;;;4.10;;
5987;SDS011;3021;51.000;6.980;2023-07-29T06:12:36;5.50;;;2.95;;
5987;SDS011;3021;51.000;6.980;2023-07-29T06:15:02;5.00;;;2.53;;
5987;SDS011;3021;51.000;6.980;2023-07-29T06:17:27;6.72;;;2.88;;
5987;SDS011;3021;51.000;6.980;2023-07-29T06:19:53;3.90;;;2.63;;
5987;SDS011;3021;51.000;6.980;2023-07-29T06:22:18;5.82;;;2.80;;
5987;SDS011;3021;51.000;6.980;2023-07-29T06:24:43;5.72;;;2.42;;
5987;SDS011;3021;51.000;6.980;2023-07-29T06:27:09;4.30;;;2.45;;
5987;SDS011;3021;51.000;6.980;2023-07-29T06:29:34;8.15;;;2.90;;
5987;SDS011;3021;51.000;6.980;2023-07-29T06:31:59;5.32;;;2.90;;
5987;SDS011;3021;51.000;6.980;2023-07-29T06:34:25;5.40;;;2.67;;
5987;SDS011;3021;51.000;6.980;2023-07-29T06:36:50;3.05;;;2.10;;
5987;SDS011;3021;51.000;6.980;2023-07-29T06:39:16;3.40;;;2.28;;
5987;SDS011;3021;51.000;6.980;2023-07-29T06:41:41;3.95;;;2.42;;
5987;SDS011;3021;51.000;6.980;2023-07-29T06:44:06;4.95;;;2.55;;
5987;SDS011;3021;51.000;6.980;2023-07-29T06:46:32;3.65;;;2.53;;
5987;SDS011;3021;51.000;6.980;2023-07-29T06:48:57;3.65;;;2.33;;
5987;SDS011;3021;51.000;6.980;2023-07-29T06:51:22;4.82;;;2.08;;
5987;SDS011;3021;51.000;6.980;2023-07-29T06:53:48;3.20;;;1.95;;
5987;SDS011;3021;51.000;6.980;2023-07-29T06:56:13;3.88;;;1.75;;
5987;SDS011;3021;51.000;6.980;2023-07-29T06:58:38;5.47;;;2.28;;
5987;SDS011;3021;51.000;6.980;2023-07-29T07:01:04;3.55;;;1.98;;
5987;SDS011;3021;51.000;6.980;2023-07-29T07:03:29;4.47;;;1.83;;
5987;SDS011;3021;51.000;6.980;2023-07-29T07:05:54;3.17;;;1.70;;
5987;SDS011;3021;51.000;6.980;2023-07-29T07:08:20;2.28;;;1.83;;
5987;SDS011;3021;51.000;6.980;2023-07-29T07:10:46;4.43;;;1.48;;
5987;SDS011;3021;51.000;6.980;2023-07-29T07:13:12;3.35;;;1.70;;
5987;SDS011;3021;51.000;6.980;2023-07-29T07:15:38;3.80;;;1.60;;
5987;SDS011;3021;51.000;6.980;2023-07-29T07:18:03;3.15;;;1.40;;
5987;SDS011;3021;51.000;6.980;2023-07-29T07:20:28;3.65;;;1.92;;
5987;SDS011;3021;51.000;6.980;2023-07-29T07:22:54;4.93;;;2.00;;
5987;SDS011;3021;51.000;6.980;2023-07-29T07:25:20;3.83;;;2.00;;
5987;SDS011;3021;51.000;6.980;2023-07-29T07:27:45;4.50;;;2.10;;
5987;SDS011;3021;51.000;6.980;2023-07-29T07:30:11;4.97;;;2.60;;
5987;SDS011;3021;51.000;6.980;2023-07-29T07:32:36;3.00;;;2.28;;
5987;SDS011;3021;51.000;6.980;2023-07-29T07:35:02;2.90;;;2.22;;
5987;SDS011;3021;51.000;6.980;2023-07-29T07:37:27;7.00;;;2.65;;
5987;SDS011;3021;51.000;6.980;2023-07-29T07:39:52;3.72;;;2.47;;
5987;SDS011;3021;51.000;6.980;2023-07-29T07:42:18;2.65;;;2.30;;
5987;SDS011;3021;51.000;6.980;2023-07-29T07:44:43;4.57;;;2.30;;
5987;SDS011;3021;51.000;6.980;2023-07-29T07:47:08;5.18;;;2.10;;
5987;SDS011;3021;51.000;6.980;2023-07-29T07:49:34;2.78;;;1.52;;
5987;SDS011;3021;51.000;6.980;2023-07-29T07:51:59;4.53;;;2.20;;
5987;SDS011;3021;51.000;6.980;2023-07-29T07:54:24;1.75;;;1.65;;
5987;SDS011;3021;51.000;6.980;2023-07-29T07:56:50;3.03;;;1.73;;
5987;SDS011;3021;51.000;6.980;2023-07-29T07:59:15;4.57;;;1.90;;
5987;SDS011;3021;51.000;6.980;2023-07-29T08:01:40;3.47;;;1.65;;
5987;SDS011;3021;51.000;6.980;2023-07-29T08:04:06;4.95;;;1.80;;
5987;SDS011;3021;51.000;6.980;2023-07-29T08:06:31;4.45;;;2.05;;
5987;SDS011;3021;51.000;6.980;2023-07-29T08:08:57;4.07;;;1.50;;
5987;SDS011;3021;51.000;6.980;2023-07-29T08:11:23;4.35;;;1.60;;
5987;SDS011;3021;51.000;6.980;2023-07-29T08:13:49;3.00;;;1.60;;
5987;SDS011;3021;51.000;6.980;2023-07-29T08:16:14;1.80;;;1.55;;
5987;SDS011;3021;51.000;6.980;2023-07-29T08:18:40;2.30;;;1.65;;
5987;SDS011;3021;51.000;6.980;2023-07-29T08:21:05;2.17;;;1.60;;
5987;SDS011;3021;51.000;6.980;2023-07-29T08:23:31;2.05;;;1.45;;
5987;SDS011;3021;51.000;6.980;2023-07-29T08:26:01;3.60;;;1.55;;
5987;SDS011;3021;51.000;6.980;2023-07-29T08:28:30;7.53;;;2.30;;
5987;SDS011;3021;51.000;6.980;2023-07-29T08:30:56;4.18;;;2.05;;
5987;SDS011;3021;51.000;6.980;2023-07-29T08:33:22;6.18;;;1.60;;
5987;SDS011;3021;51.000;6.980;2023-07-29T08:35:47;3.15;;;1.50;;
5987;SDS011;3021;51.000;6.980;2023-07-29T08:38:13;2.60;;;1.60;;
5987;SDS011;3021;51.000;6.980;2023-07-29T08:40:42;6.00;;;2.15;;
5987;SDS011;3021;51.000;6.980;2023-07-29T08:43:10;3.63;;;1.83;;
5987;SDS011;3021;51.000;6.980;2023-07-29T08:45:37;3.20;;;2.03;;
5987;SDS011;3021;51.000;6.980;2023-07-29T08:48:09;3.75;;;1.95;;
5987;SDS011;3021;51.000;6.980;2023-07-29T08:50:36;3.67;;;2.10;;
5987;SDS011;3021;51.000;6.980;2023-07-29T08:53:05;4.35;;;2.60;;
5987;SDS011;3021;51.000;6.980;2023-07-29T08:55:31;3.47;;;2.75;;
5987;SDS011;3021;51.000;6.980;2023-07-29T08:57:57;3.38;;;2.67;;
5987;SDS011;3021;51.000;6.980;2023-07-29T09:00:25;3.05;;;2.60;;
5987;SDS011;3021;51.000;6.980;2023-07-29T09:02:51;5.40;;;1.92;;
5987;SDS011;3021;51.000;6.980;2023-07-29T09:05:16;3.15;;;1.50;;
5987;SDS011;3021;51.000;6.980;2023-07-29T09:07:42;2.15;;;1.40;;
5987;SDS011;3021;51.000;6.980;2023-07-29T09:10:08;3.08;;;1.40;;
5987;SDS011;3021;51.000;6.980;2023-07-29T09:12:35;3.30;;;1.33;;
5987;SDS011;3021;51.000;6.980;2023-07-29T09:15:01;2.88;;;1.20;;
5987;SDS011;3021;51.000;6.980;2023-07-29T09:17:26;1.70;;;1.23;;
5987;SDS011;3021;51.000;6.980;2023-07-29T09:19:55;3.42;;;1.20;;
5987;SDS011;3021;51.000;6.980;2023-07-29T09:22:21;4.75;;;1.45;;
5987;SDS011;3021;51.000;6.980;2023-07-29T09:24:46;3.25;;;1.17;;
5987;SDS011;3021;51.000;6.980;2023-07-29T09:27:28;2.10;;;1.23;;
5987;SDS011;3021;51.000;6.980;2023-07-29T09:29:56;1.42;;;1.30;;
5987;SDS011;3021;51.000;6.980;2023-07-29T09:32:23;1.60;;;1.20;;
5987;SDS011;3021;51.000;6.980;2023-07-29T09:34:50;1.83;;;1.10;;
5987;SDS011;3021;51.000;6.980;2023-07-29T09:37:21;1.67;;;1.50;;
5987;SDS011;3021;51.000;6.980;2023-07-29T09:39:47;1.70;;;1.15;;
5987;SDS011;3021;51.000;6.980;2023-07-29T09:42:17;7.03;;;1.27;;
5987;SDS011;3021;51.000;6.980;2023-07-29T09:44:46;1.45;;;0.93;;
5987;SDS011;3021;51.000;6.980;2023-07-29T09:47:20;4.03;;;1.30;;
5987;SDS011;3021;51.000;6.980;2023-07-29T09:49:52;2.92;;;1.20;;
5987;SDS011;3021;51.000;6.980;2023-07-29T09:52:22;2.03;;;1.23;;
5987;SDS011;3021;51.000;6.980;2023-07-29T09:54:48;3.45;;;1.00;;
5987;SDS011;3021;51.000;6.980;2023-07-29T09:57:14;1.50;;;1.40;;
5987;SDS011;3021;51.000;6.980;2023-07-29T09:59:40;2.15;;;1.40;;
5987;SDS011;3021;51.000;6.980;2023-07-29T10:02:09;4.03;;;1.40;;
5987;SDS011;3021;51.000;6.980;2023-07-29T10:04:40;2.15;;;1.40;;
5987;SDS011;3021;51.000;6.980;2023-07-29T10:07:06;1.85;;;1.20;;
5987;SDS011;3021;51.000;6.980;2023-07-29T10:09:33;4.82;;;1.60;;
5987;SDS011;3021;51.000;6.980;2023-07-29T10:11:59;3.72;;;1.63;;
5987;SDS011;3021;51.000;6.980;2023-07-29T10:14:25;1.58;;;1.02;;
5987;SDS011;3021;51.000;6.980;2023-07-29T10:16:53;3.83;;;1.30;;
5987;SDS011;3021;51.000;6.980;2023-07-29T10:19:20;1.77;;;1.17;;
5987;SDS011;3021;51.000;6.980;2023-07-29T10:21:45;5.05;;;1.17;;
5987;SDS011;3021;51.000;6.980;2023-07-29T10:24:15;2.88;;;1.38;;
5987;SDS011;3021;51.000;6.980;2023-07-29T10:26:44;2.78;;;1.40;;
5987;SDS011;3021;51.000;6.980;2023-07-29T10:29:12;1.88;;;1.30;;
5987;SDS011;3021;51.000;6.980;2023-07-29T10:31:40;2.08;;;1.30;;
5987;SDS011;3021;51.000;6.980;2023-07-29T10:34:08;3.22;;;1.40;;
5987;SDS011;3021;51.000;6.980;2023-07-29T10:36:35;1.75;;;1.38;;
5987;SDS011;3021;51.000;6.980;2023-07-29T10:39:00;2.28;;;1.55;;
5987;SDS011;3021;51.000;6.980;2023-07-29T10:41:53;1.70;;;1.35;;
5987;SDS011;3021;51.000;6.980;2023-07-29T10:49:42;1.98;;;1.42;;
5987;SDS011;3021;51.000;6.980;2023-07-29T10:52:08;1.30;;;1.20;;
5987;SDS011;3021;51.000;6.980;2023-07-29T10:54:54;2.53;;;1.42;;
5987;SDS011;3021;51.000;6.980;2023-07-29T10:57:32;1.50;;;1.40;;
5987;SDS011;3021;51.000;6.980;2023-07-29T10:59:58;1.65;;;1.27;;
5987;SDS011;3021;51.000;6.980;2023-07-29T11:02:31;1.40;;;1.30;;
5987;SDS011;3021;51.000;6.980;2023-07-29T11:04:58;1.38;;;1.25;;
5987;SDS011;3021;51.000;6.980;2023-07-29T11:07:25;2.13;;;1.30;;
5987;SDS011;3021;51.000;6.980;2023-07-29T11:10:01;1.38;;;1.27;;
5987;SDS011;3021;51.000;6.980;2023-07-29T11:12:33;2.92;;;1.65;;
5987;SDS011;3021;51.000;6.980;2023-07-29T11:15:41;2.30;;;1.70;;
5987;SDS011;3021;51.000;6.980;2023-07-29T11:20:16;2.20;;;1.40;;
5987;SDS011;3021;51.000;6.980;2023-07-29T11:22:43;2.40;;;1.40;;
5987;SDS011;3021;51.000;6.980;2023-07-29T11:25:10;1.77;;;1.40;;
5987;SDS011;3021;51.000;6.980;2023-07-29T11:27:36;1.98;;;1.40;;
5987;SDS011;3021;51.000;6.980;2023-07-29T11:30:09;3.30;;;1.40;;
5987;SDS011;3021;51.000;6.980;2023-07-29T11:32:38;2.83;;;1.40;;
5987;SDS011;3021;51.000;6.980;2023-07-29T11:35:05;5.20;;;1.85;;
5987;SDS011;3021;51.000;6.980;2023-07-29T11:37:33;2.40;;;1.80;;
5987;SDS011;3021;51.000;6.980;2023-07-29T11:39:59;4.20;;;1.60;;
5987;SDS011;3021;51.000;6.980;2023-07-29T11:42:26;3.70;;;2.03;;
5987;SDS011;3021;51.000;6.980;2023-07-29T11:44:51;2.95;;;1.60;;
5987;SDS011;3021;51.000;6.980;2023-07-29T11:47:17;3.45;;;1.75;;
5987;SDS011;3021;51.000;6.980;2023-07-29T11:49:42;1.65;;;1.55;;
5987;SDS011;3021;51.000;6.980;2023-07-29T11:52:08;1.77;;;1.42;;
5987;SDS011;3021;51.000;6.980;2023-07-29T11:54:35;1.88;;;1.48;;
5987;SDS011;3021;51.000;6.980;2023-07-29T11:57:02;2.30;;;1.60;;
5987;SDS011;3021;51.000;6.980;2023-07-29T11:59:30;4.82;;;1.50;;
5987;SDS011;3021;51.000;6.980;2023-07-29T12:01:58;2.92;;;1.80;;
5987;SDS011;3021;51.000;6.980;2023-07-29T12:04:25;3.35;;;1.90;;
5987;SDS011;3021;51.000;6.980;2023-07-29T12:06:51;2.78;;;1.80;;
5987;SDS011;3021;51.000;6.980;2023-07-29T12:09:16;2.65;;;2.05;;
5987;SDS011;3021;51.000;6.980;2023-07-29T12:11:42;2.03;;;1.83;;
5987;SDS011;3021;51.000;6.980;2023-07-29T12:14:09;2.63;;;1.60;;
5987;SDS011;3021;51.000;6.980;2023-07-29T12:16:42;2.42;;;1.70;;
5987;SDS011;3021;51.000;6.980;2023-07-29T12:19:08;1.92;;;1.63;;
5987;SDS011;3021;51.000;6.980;2023-07-29T12:21:33;1.92;;;1.67;;
5987;SDS011;3021;51.000;6.980;2023-07-29T12:24:00;2.40;;;1.70;;
5987;SDS011;3021;51.000;6.980;2023-07-29T12:26:27;4.03;;;1.80;;
5987;SDS011;3021;51.000;6.980;2023-07-29T12:28:54;2.28;;;1.50;;
5987;SDS011;3021;51.000;6.980;2023-07-29T12:31:19;2.28;;;1.60;;
5987;SDS011;3021;51.000;6.980;2023-07-29T12:33:44;1.58;;;1.33;;
5987;SDS011;3021;51.000;6.980;2023-07-29T12:36:10;1.33;;;1.23;;
5987;SDS011;3021;51.000;6.980;2023-07-29T12:38:35;1.88;;;1.70;;
5987;SDS011;3021;51.000;6.980;2023-07-29T12:41:01;1.67;;;1.58;;
5987;SDS011;3021;51.000;6.980;2023-07-29T12:43:26;1.70;;;1.42;;
5987;SDS011;3021;51.000;6.980;2023-07-29T12:45:52;2.03;;;1.58;;
5987;SDS011;3021;51.000;6.980;2023-07-29T12:48:17;1.48;;;1.38;;
5987;SDS011;3021;51.000;6.980;2023-07-29T12:50:42;2.60;;;1.45;;
5987;SDS011;3021;51.000;6.980;2023-07-29T12:53:08;2.00;;;1.63;;
5987;SDS011;3021;51.000;6.980;2023-07-29T12:55:37;1.45;;;1.35;;
5987;SDS011;3021;51.000;6.980;2023-07-29T12:58:03;3.28;;;1.73;;
5987;SDS011;3021;51.000;6.980;2023-07-29T13:00:29;1.40;;;1.30;;
5987;SDS011;3021;51.000;6.980;2023-07-29T13:02:54;2.72;;;1.67;;
5987;SDS011;3021;51.000;6.980;2023-07-29T13:05:19;2.10;;;1.50;;
5987;SDS011;3021;51.000;6.980;2023-07-29T13:07:45;1.60;;;1.50;;
5987;SDS011;3021;51.000;6.980;2023-07-29T13:10:11;2.40;;;1.40;;
5987;SDS011;3021;51.000;6.980;2023-07-29T13:12:37;1.67;;;1.52;;
5987;SDS011;3021;51.000;6.980;2023-07-29T13:15:02;2.10;;;1.55;;
5987;SDS011;3021;51.000;6.980;2023-07-29T13:17:28;1.90;;;1.63;;
5987;SDS011;3021;51.000;6.980;2023-07-29T13:19:53;2.33;;;1.60;;
5987;SDS011;3021;51.000;6.980;2023-07-29T13:22:19;2.00;;;1.73;;
5987;SDS011;3021;51.000;6.980;2023-07-29T13:24:45;2.83;;;1.60;;
5987;SDS011;3021;51.000;6.980;2023-07-29T13:27:11;1.88;;;1.58;;
5987;SDS011;3021;51.000;6.980;2023-07-29T13:29:36;1.92;;;1.40;;
5987;SDS011;3021;51.000;6.980;2023-07-29T13:32:01;2.30;;;1.90;;
5987;SDS011;3021;51.000;6.980;2023-07-29T13:34:27;1.98;;;1.42;;
5987;SDS011;3021;51.000;6.980;2023-07-29T13:36:52;2.20;;;1.75;;
5987;SDS011;3021;51.000;6.980;2023-07-29T13:39:18;2.13;;;1.85;;
5987;SDS011;3021;51.000;6.980;2023-07-29T13:41:43;2.72;;;1.70;;
5987;SDS011;3021;51.000;6.980;2023-07-29T13:44:08;3.63;;;1.73;;
5987;SDS011;3021;51.000;6.980;2023-07-29T13:46:34;1.60;;;1.50;;
5987;SDS011;3021;51.000;6.980;2023-07-29T13:48:59;2.20;;;1.85;;
5987;SDS011;3021;51.000;6.980;2023-07-29T13:51:25;2.92;;;2.00;;
5987;SDS011;3021;51.000;6.980;2023-07-29T13:53:50;10.98;;;2.15;;
5987;SDS011;3021;51.000;6.980;2023-07-29T13:56:15;4.43;;;2.03;;
5987;SDS011;3021;51.000;6.980;2023-07-29T13:58:40;3.08;;;1.90;;
5987;SDS011;3021;51.000;6.980;2023-07-29T14:01:06;4.30;;;2.65;;
5987;SDS011;3021;51.000;6.980;2023-07-29T14:03:31;3.47;;;2.60;;
5987;SDS011;3021;51.000;6.980;2023-07-29T14:05:56;6.60;;;3.05;;
5987;SDS011;3021;51.000;6.980;2023-07-29T14:08:22;3.45;;;2.70;;
5987;SDS011;3021;51.000;6.980;2023-07-29T14:10:51;4.00;;;2.70;;
5987;SDS011;3021;51.000;6.980;2023-07-29T14:13:16;5.65;;;3.38;;
5987;SDS011;3021;51.000;6.980;2023-07-29T14:15:41;4.57;;;3.25;;
5987;SDS011;3021;51.000;6.980;2023-07-29T14:18:07;4.78;;;2.80;;
5987;SDS011;3021;51.000;6.980;2023-07-29T14:20:33;5.43;;;3.05;;
5987;SDS011;3021;51.000;6.980;2023-07-29T14:22:58;5.35;;;3.08;;
5987;SDS011;3021;51.000;6.980;2023-07-29T14:25:24;6.75;;;3.20;;
5987;SDS011;3021;51.000;6.980;2023-07-29T14:27:49;3.95;;;2.70;;
5987;SDS011;3021;51.000;6.980;2023-07-29T14:30:15;6.30;;;2.78;;
5987;SDS011;3021;51.000;6.980;2023-07-29T14:32:40;2.92;;;2.63;;
5987;SDS011;3021;51.000;6.980;2023-07-29T14:35:06;2.72;;;2.42;;
5987;SDS011;3021;51.000;6.980;2023-07-29T14:37:33;3.17;;;2.70;;
5987;SDS011;3021;51.000;6.980;2023-07-29T14:39:58;4.82;;;2.60;;
5987;SDS011;3021;51.000;6.980;2023-07-29T14:42:24;3.50;;;2.50;;
5987;SDS011;3021;51.000;6.980;2023-07-29T14:44:49;2.58;;;2.10;;
5987;SDS011;3021;51.000;6.980;2023-07-29T14:47:14;3.05;;;2.50;;
5987;SDS011;3021;51.000;6.980;2023-07-29T14:49:40;3.03;;;1.85;;
5987;SDS011;3021;51.000;6.980;2023-07-29T14:52:05;3.38;;;2.63;;
5987;SDS011;3021;51.000;6.980;2023-07-29T14:54:31;2.42;;;2.22;;
5987;SDS011;3021;51.000;6.980;2023-07-29T14:56:57;2.55;;;2.30;;
5987;SDS011;3021;51.000;6.980;2023-07-29T14:59:22;2.63;;;2.13;;
5987;SDS011;3021;51.000;6.980;2023-07-29T15:01:47;3.33;;;2.20;;
5987;SDS011;3021;51.000;6.980;2023-07-29T15:04:13;3.08;;;2.78;;
5987;SDS011;3021;51.000;6.980;2023-07-29T15:06:38;2.33;;;2.05;;
5987;SDS011;3021;51.000;6.980;2023-07-29T15:09:04;4.38;;;2.38;;
5987;SDS011;3021;51.000;6.980;2023-07-29T15:11:30;2.30;;;2.10;;
5987;SDS011;3021;51.000;6.980;2023-07-29T15:13:58;3.67;;;2.00;;
5987;SDS011;3021;51.000;6.980;2023-07-29T15:16:24;4.28;;;2.22;;
5987;SDS011;3021;51.000;6.980;2023-07-29T15:18:49;3.08;;;2.08;;
5987;SDS011;3021;51.000;6.980;2023-07-29T15:21:15;2.58;;;2.10;;